ENGK

Gullknapp Flpl Airport

Norway
METAR ENGK 161250Z 05006KT 9999 BKN009 09/07 Q1017
Observed Flight Rules
Oct-16 @ 12:50 UTC (16 hours ago) Instrument Flight Rules
Wind Visibility Clouds
50° at 6 knots 10,000+ meters
  • Broken at 900' AGL
Temperatures Readings
Current 9°C / 48°F
Dewpoint 7°C / 45°F
Humidity 87%
Altimeter 30.03" Hg
Pressure 1017 hPa
Elevation 119
METAR ENGK 161250Z 05006KT 9999 BKN009 09/07 Q1017
Observed Flight Rules
Oct-16 @ 12:50 UTC
(16 hours ago)
IFR
Wind Visibility
50° at 6 knots 10,000+ meters
Clouds
  • Broken at 900' AGL
Temperature Dewpoint
9°C / 48°F 7°C / 45°F
Humidity Altimeter Pressure
87% 30.03" Hg 1017 hPa